Flight Track Log - Related Links

Times and Time Zones

All times are in EDT time to prevent confusion due to time zone crossing. See the N88WF flight status page for this flight to view local times or setup timezone preferences in your user account.

Time Position Orientation Groundspeed Altitude Reporting Facility
EDT Latitude Longitude Course Direction KTS MPH feet Rate Location/Type
Sat 06:33:10 PM 40.7900 -75.1360 238° Southwest 167 192 9,700  Level FlightAware ADS-B
Sat 06:33:34 PM 40.7800 -75.1570 238° Southwest 168 193 9,700  Level FlightAware ADS-B
Sat 06:33:55 PM 40.7710 -75.1750 237° Southwest 170 196 9,700  Level FlightAware ADS-B
Sat 06:34:11 PM 40.7650 -75.1890 241° Southwest 170 196 9,700  Level FlightAware ADS-B
Sat 06:34:34 PM 40.7540 -75.2090 234° Southwest 171 197 9,700  Level FlightAware ADS-B
Sat 06:34:58 PM 40.7450 -75.2280 238° Southwest 169 194 9,700  Level FlightAware ADS-B
Sat 06:35:05 PM 40.7420 -75.2350 241° Southwest 169 194 9,700  Level FlightAware ADS-B
Sat 06:35:30 PM 40.7310 -75.2570 237° Southwest 170 196 9,700  Level FlightAware ADS-B
Sat 06:35:58 PM 40.7190 -75.2810 237° Southwest 171 197 9,700  Level FlightAware ADS-B
Sat 06:36:20 PM 40.7100 -75.2990 237° Southwest 171 197 9,700  Level FlightAware ADS-B
Sat 06:36:44 PM 40.6990 -75.3210 237° Southwest 171 197 9,700  Level FlightAware ADS-B
Sat 06:37:04 PM 40.6900 -75.3380 235° Southwest 173 199 9,700  Level FlightAware ADS-B
Sat 06:37:23 PM 40.6820 -75.3550 238° Southwest 174 200 9,700  Level FlightAware ADS-B
Sat 06:37:36 PM 40.6760 -75.3660 234° Southwest 174 200 9,700  Level FlightAware ADS-B
Sat 06:38:00 PM 40.6640 -75.3900 237° Southwest 174 200 9,700  Level FlightAware ADS-B
Sat 06:38:20 PM 40.6560 -75.4070 238° Southwest 174 200 9,700  Level FlightAware ADS-B
Sat 06:38:39 PM 40.6470 -75.4240 235° Southwest 174 200 9,700  Level FlightAware ADS-B
Sat 06:39:03 PM 40.6370 -75.4440 237° Southwest 174 200 9,700  Level FlightAware ADS-B
Sat 06:39:16 PM 40.6320 -75.4550 239° Southwest 174 200 9,700  Level FlightAware ADS-B
Sat 06:39:33 PM 40.6240 -75.4710 237° Southwest 174 200 9,700  Level FlightAware ADS-B
Sat 06:39:57 PM 40.6130 -75.4930 237° Southwest 174 200 9,700  Level FlightAware ADS-B
Sat 06:40:19 PM 40.6040 -75.5110 237° Southwest 175 201 9,700  Level FlightAware ADS-B
Sat 06:40:38 PM 40.5940 -75.5290 234° Southwest 176 203 9,700  Level FlightAware ADS-B
Sat 06:41:02 PM 40.5830 -75.5510 237° Southwest 176 203 9,700  Level FlightAware ADS-B
Sat 06:41:24 PM 40.5740 -75.5710 239° Southwest 176 203 9,700  Level FlightAware ADS-B
Sat 06:41:43 PM 40.5650 -75.5880 235° Southwest 173 199 9,700  Level FlightAware ADS-B
Sat 06:42:02 PM 40.5570 -75.6040 237° Southwest 174 200 9,700  Level FlightAware ADS-B
Sat 06:42:22 PM 40.5490 -75.6200 237° Southwest 175 201 9,700  Level FlightAware ADS-B
Sat 06:42:46 PM 40.5380 -75.6420 237° Southwest 174 200 9,700  Level FlightAware ADS-B
Sat 06:43:08 PM 40.5270 -75.6640 237° Southwest 173 199 9,700  Level FlightAware ADS-B
Sat 06:43:28 PM 40.5180 -75.6800 234° Southwest 174 200 9,700  Level FlightAware ADS-B
Sat 06:43:45 PM 40.5100 -75.6960 237° Southwest 175 201 9,700  Level FlightAware ADS-B
Sat 06:44:05 PM 40.5020 -75.7130 238° Southwest 175 201 9,700  Level FlightAware ADS-B
Sat 06:44:25 PM 40.4930 -75.7310 237° Southwest 175 201 9,700  Level FlightAware ADS-B
Sat 06:44:44 PM 40.4850 -75.7470 237° Southwest 175 201 9,700  Level FlightAware ADS-B
Sat 06:45:08 PM 40.4740 -75.7690 237° Southwest 175 201 9,700  Level FlightAware ADS-B
Sat 06:45:27 PM 40.4650 -75.7860 235° Southwest 173 199 9,700  Level FlightAware ADS-B
Sat 06:45:47 PM 40.4560 -75.8040 237° Southwest 173 199 9,700  Level FlightAware ADS-B
Sat 06:46:02 PM 40.4490 -75.8170 235° Southwest 175 201 9,700  Level FlightAware ADS-B
Sat 06:46:26 PM 40.4380 -75.8380 235° Southwest 175 201 9,700  Level FlightAware ADS-B
Sat 06:46:45 PM 40.4300 -75.8550 238° Southwest 175 201 9,700  Level FlightAware ADS-B
Sat 06:47:05 PM 40.4210 -75.8720 235° Southwest 175 201 9,700  Level FlightAware ADS-B
Sat 06:47:22 PM 40.4140 -75.8870 238° Southwest 175 201 9,700  Level FlightAware ADS-B
Sat 06:47:41 PM 40.4050 -75.9040 235° Southwest 175 201 9,700  Level FlightAware ADS-B
Sat 06:48:01 PM 40.3960 -75.9220 237° Southwest 175 201 9,700  Level FlightAware ADS-B
Sat 06:48:21 PM 40.3870 -75.9390 235° Southwest 175 201 9,700  Level FlightAware ADS-B
Sat 06:48:42 PM 40.3780 -75.9580 238° Southwest 175 201 9,700  Level FlightAware ADS-B
Sat 06:49:06 PM 40.3670 -75.9800 237° Southwest 175 201 9,700  Level FlightAware ADS-B
Sat 06:49:26 PM 40.3580 -75.9970 235° Southwest 175 201 9,700  Level FlightAware ADS-B
Sat 06:49:45 PM 40.3490 -76.0130 234° Southwest 175 201 9,700  Level FlightAware ADS-B
Sat 06:50:06 PM 40.3400 -76.0330 239° Southwest 174 200 9,700  Level FlightAware ADS-B
Sat 06:50:30 PM 40.3290 -76.0540 236° Southwest 174 200 9,700  Level FlightAware ADS-B
Sat 06:50:48 PM 40.3220 -76.0670 235° Southwest 174 200 9,700  Level FlightAware ADS-B
Sat 06:51:05 PM 40.3150 -76.0830 240° Southwest 174 200 9,700  Level FlightAware ADS-B
Sat 06:51:26 PM 40.3080 -76.1040 246° West 174 200 9,700  Level FlightAware ADS-B
Sat 06:51:37 PM 40.3040 -76.1150 245° Southwest 175 201 9,700  Level FlightAware ADS-B
Sat 06:52:01 PM 40.2950 -76.1390 244° Southwest 174 200 9,700  Level FlightAware ADS-B
Sat 06:52:15 PM 40.2910 -76.1500 245° Southwest 174 200 9,700  Level FlightAware ADS-B
Sat 06:52:41 PM 40.2820 -76.1770 246° West 174 200 9,700  Level FlightAware ADS-B
Sat 06:53:01 PM 40.2750 -76.1960 244° Southwest 174 200 9,700  Level FlightAware ADS-B
Sat 06:53:26 PM 40.2660 -76.2200 244° Southwest 174 200 9,700  Level FlightAware ADS-B
Sat 06:53:45 PM 40.2600 -76.2390 248° West 174 200 9,700  Level FlightAware ADS-B
Sat 06:54:05 PM 40.2530 -76.2570 243° Southwest 174 200 9,700  Level FlightAware ADS-B
Sat 06:54:25 PM 40.2460 -76.2760 244° Southwest 175 201 9,700  Level FlightAware ADS-B
Sat 06:54:45 PM 40.2390 -76.2950 244° Southwest 175 201 9,700  Level FlightAware ADS-B
Sat 06:55:11 PM 40.2300 -76.3210 246° West 175 201 9,700  Level FlightAware ADS-B
Sat 06:55:31 PM 40.2230 -76.3400 244° Southwest 175 201 9,700  Level FlightAware ADS-B
Sat 06:55:43 PM 40.2190 -76.3510 245° Southwest 176 203 9,700  Level FlightAware ADS-B
Sat 06:56:03 PM 40.2120 -76.3710 245° Southwest 176 203 9,700  Level FlightAware ADS-B
Sat 06:56:18 PM 40.2070 -76.3850 245° Southwest 176 203 9,700  Level FlightAware ADS-B
Sat 06:56:41 PM 40.1990 -76.4070 245° Southwest 178 205 9,700  Level FlightAware ADS-B
Sat 06:57:01 PM 40.1920 -76.4270 245° Southwest 178 205 9,700  Level FlightAware ADS-B
Sat 06:57:20 PM 40.1850 -76.4450 243° Southwest 176 203 9,700  Level FlightAware ADS-B
Sat 06:57:44 PM 40.1770 -76.4680 246° West 178 205 9,700  Level FlightAware ADS-B
Sat 06:58:05 PM 40.1700 -76.4890 246° West 178 205 9,700  Level FlightAware ADS-B
Sat 06:58:25 PM 40.1620 -76.5090 242° Southwest 178 205 9,700  Level FlightAware ADS-B
Sat 06:58:45 PM 40.1550 -76.5280 244° Southwest 178 205 9,700  Level FlightAware ADS-B
Sat 06:59:09 PM 40.1470 -76.5510 246° West 178 205 9,700  Level FlightAware ADS-B
Sat 06:59:29 PM 40.1400 -76.5710 245° Southwest 177 204 9,700  Level FlightAware ADS-B
Sat 06:59:49 PM 40.1330 -76.5890 243° Southwest 177 204 9,700  Level FlightAware ADS-B
Sat 07:00:09 PM 40.1260 -76.6090 245° Southwest 177 204 9,700  Level FlightAware ADS-B
Sat 07:00:33 PM 40.1170 -76.6330 244° Southwest 176 203 9,700  Level FlightAware ADS-B
Sat 07:00:53 PM 40.1100 -76.6520 244° Southwest 177 204 9,700  Level FlightAware ADS-B
Sat 07:01:13 PM 40.1040 -76.6700 246° West 175 201 9,700  Level FlightAware ADS-B
Sat 07:01:33 PM 40.0970 -76.6900 245° Southwest 175 201 9,700  Level FlightAware ADS-B
Sat 07:01:57 PM 40.0880 -76.7140 244° Southwest 177 204 9,700  Level FlightAware ADS-B
Sat 07:02:16 PM 40.0820 -76.7310 245° Southwest 175 201 9,700  Level FlightAware ADS-B
Sat 07:02:37 PM 40.0740 -76.7510 242° Southwest 173 199 9,700  Level FlightAware ADS-B
Sat 07:02:57 PM 40.0670 -76.7700 244° Southwest 174 200 9,700  Level FlightAware ADS-B
Sat 07:03:17 PM 40.0600 -76.7890 244° Southwest 174 200 9,700  Level FlightAware ADS-B
Sat 07:03:41 PM 40.0520 -76.8120 246° West 174 200 9,700  Level FlightAware ADS-B
Sat 07:04:01 PM 40.0450 -76.8310 244° Southwest 175 201 9,700  Level FlightAware ADS-B
Sat 07:04:19 PM 40.0390 -76.8480 245° Southwest 176 203 9,700  Level FlightAware ADS-B
Sat 07:04:45 PM 40.0300 -76.8730 245° Southwest 176 203 9,700  Level FlightAware ADS-B
Sat 07:05:05 PM 40.0220 -76.8930 242° Southwest 176 203 9,700  Level FlightAware ADS-B
Sat 07:05:25 PM 40.0160 -76.9110 246° West 177 204 9,700  Level FlightAware ADS-B
Sat 07:05:45 PM 40.0090 -76.9300 244° Southwest 176 203 9,700  Level FlightAware ADS-B
Sat 07:06:05 PM 40.0020 -76.9500 245° Southwest 174 200 9,700  Level FlightAware ADS-B
Sat 07:06:29 PM 39.9930 -76.9720 242° Southwest 175 201 9,700  Level FlightAware ADS-B
Sat 07:06:49 PM 39.9860 -76.9920 245° Southwest 176 203 9,700  Level FlightAware ADS-B
Sat 07:07:17 PM 39.9730 -77.0160 235° Southwest 174 200 9,700  Level FlightAware ADS-B
Sat 07:07:46 PM 39.9590 -77.0360 228° Southwest 170 196 9,700  Level FlightAware ADS-B
Sat 07:07:56 PM 39.9520 -77.0460 228° Southwest 174 200 9,700  Level FlightAware ADS-B
Sat 07:08:21 PM 39.9380 -77.0650 226° Southwest 174 200 9,700  Level FlightAware ADS-B
Sat 07:08:41 PM 39.9290 -77.0780 228° Southwest 174 200 9,700  Level FlightAware ADS-B
Sat 07:08:59 PM 39.9180 -77.0940 228° Southwest 174 200 9,700  Level FlightAware ADS-B
Sat 07:09:14 PM 39.9110 -77.1040 228° Southwest 174 200 9,700  Level FlightAware ADS-B
Sat 07:09:34 PM 39.9000 -77.1210 230° Southwest 174 200 9,700  Level FlightAware ADS-B
Sat 07:09:54 PM 39.8880 -77.1370 226° Southwest 174 200 9,700  Level FlightAware ADS-B
Sat 07:10:24 PM 39.8720 -77.1600 228° Southwest 172 198 9,700  Level FlightAware ADS-B
Sat 07:10:44 PM 39.8630 -77.1730 228° Southwest 172 198 9,700  Level FlightAware ADS-B
Sat 07:11:19 PM 39.8430 -77.2020 228° Southwest 172 198 9,700  Level FlightAware ADS-B
Sat 07:11:39 PM 39.8320 -77.2180 228° Southwest 173 199 9,700  Level FlightAware ADS-B
Sat 07:12:04 PM 39.8190 -77.2360 227° Southwest 172 198 9,700  Level FlightAware ADS-B
Sat 07:12:24 PM 39.8080 -77.2510 226° Southwest 173 199 9,700  Level FlightAware ADS-B
Sat 07:12:44 PM 39.7980 -77.2650 227° Southwest 172 198 9,700  Level FlightAware ADS-B
Sat 07:13:04 PM 39.7860 -77.2830 229° Southwest 173 199 9,700  Level FlightAware ADS-B
Sat 07:13:31 PM 39.7730 -77.3010 227° Southwest 174 200 9,700  Level FlightAware ADS-B
Sat 07:13:51 PM 39.7630 -77.3160 229° Southwest 174 200 9,700  Level FlightAware ADS-B
Sat 07:14:16 PM 39.7490 -77.3360 228° Southwest 174 200 9,700  Level FlightAware ADS-B
Sat 07:14:26 PM 39.7430 -77.3440 226° Southwest 174 200 9,700  Level FlightAware ADS-B
Sat 07:14:49 PM 39.8200 -77.2350 47° Northeast 9,700  Level FlightAware ADS-B
Sat 07:15:46 PM 39.7010 -77.4040 228° Southwest 174 200 9,700  Level FlightAware ADS-B
Sat 07:16:25 PM 39.6820 -77.4310 228° Southwest 174 200 9,700  Level FlightAware ADS-B
Sat 07:16:49 PM 39.6700 -77.4470 226° Southwest 174 200 9,700  Level FlightAware ADS-B
Sat 07:17:22 PM 39.6500 -77.4750 227° Southwest 176 203 9,700  Level FlightAware ADS-B
Sat 07:17:42 PM 39.6330 -77.5000 229° Southwest 296 341 9,700  Level FlightAware ADS-B
Sat 07:19:22 PM 39.5760 -77.5760 226° Southwest 9,700  Level FlightAware ADS-B
Sat 07:19:52 PM 39.5540 -77.5930 211° Southwest 198 228 9,700  Level FlightAware ADS-B
Sat 07:20:11 PM 39.5420 -77.6020 210° Southwest 178 205 9,700  Level FlightAware ADS-B
Sat 07:21:13 PM 39.5010 -77.6350 212° Southwest 179 206 9,700  Level FlightAware ADS-B
Sat 07:21:35 PM 39.5800 -77.5730 31° Northeast 909 1046 9,700  Level FlightAware ADS-B
Sat 07:22:05 PM 39.5460 -77.6000 211° Southwest 179 206 9,700  Level FlightAware ADS-B
Sat 07:22:25 PM 39.5290 -77.6130 211° Southwest 180 207 9,700  Level FlightAware ADS-B
Sat 07:22:51 PM 39.5120 -77.6270 212° Southwest 177 204 9,700  Level FlightAware ADS-B
Sat 07:23:06 PM 39.4990 -77.6370 211° Southwest 176 203 9,700  Level FlightAware ADS-B
Sat 07:23:22 PM 39.4880 -77.6460 212° Southwest 176 203 9,700  Level FlightAware ADS-B
Sat 07:23:42 PM 39.4780 -77.6540 212° Southwest 176 203 9,700  Level FlightAware ADS-B
Sat 07:24:07 PM 39.4630 -77.6650 210° Southwest 176 203 9,700  Level FlightAware ADS-B
Sat 07:24:32 PM 39.4470 -77.6790 214° Southwest 176 203 9,700  Level FlightAware ADS-B
Sat 07:24:52 PM 39.4340 -77.6890 211° Southwest 177 204 9,700  Level FlightAware ADS-B
Sat 07:25:13 PM 39.4160 -77.7030 211° Southwest 177 204 9,700  Level FlightAware ADS-B
Sat 07:25:33 PM 39.4000 -77.7150 210° Southwest 177 204 9,700  Level FlightAware ADS-B
Sat 07:26:03 PM 39.3820 -77.7300 213° Southwest 177 204 9,700  Level FlightAware ADS-B
Sat 07:26:24 PM 39.3730 -77.7370 211° Southwest 177 204 9,700  Level FlightAware ADS-B
Sat 07:26:44 PM 39.3650 -77.7440 214° Southwest 177 204 9,700  Level FlightAware ADS-B
Sat 07:27:09 PM 39.3560 -77.7510 211° Southwest 176 203 9,700  Level FlightAware ADS-B
Sat 07:27:26 PM 39.3520 -77.7540 210° Southwest 176 203 9,700  Level FlightAware ADS-B
Sat 07:27:46 PM 39.3420 -77.7620 212° Southwest 176 203 9,700  Level FlightAware ADS-B
Sat 07:28:06 PM 39.3370 -77.7650 205° Southwest 176 203 9,700  Level FlightAware ADS-B
Sat 07:28:23 PM 39.3340 -77.7680 218° Southwest 176 203 9,700  Level FlightAware ADS-B
Sat 07:28:45 PM 39.3280 -77.7730 213° Southwest 176 203 9,700  Level FlightAware ADS-B
Sat 07:29:04 PM 39.3200 -77.7790 210° Southwest 176 203 9,700  Level FlightAware ADS-B
Sat 07:29:26 PM 39.3130 -77.7850 214° Southwest 176 203 9,700  Level FlightAware ADS-B
Sat 07:29:46 PM 39.3050 -77.7910 210° Southwest 176 203 9,700  Level FlightAware ADS-B
Sat 07:30:10 PM 39.2970 -77.7970 210° Southwest 176 203 9,700  Level FlightAware ADS-B
Sat 07:30:36 PM 39.1030 -77.9510 212° Southwest 178 205 9,700  Level FlightAware ADS-B
Sat 07:30:56 PM 39.0890 -77.9620 211° Southwest 179 206 9,700  Level FlightAware ADS-B
Sat 07:31:21 PM 39.0720 -77.9750 211° Southwest 178 205 9,700  Level FlightAware ADS-B
Sat 07:31:48 PM 39.0530 -77.9900 212° Southwest 178 205 9,700  Level FlightAware ADS-B
Sat 07:32:08 PM 39.0410 -78.0000 213° Southwest 178 205 9,700  Level FlightAware ADS-B
Sat 07:32:29 PM 39.0260 -78.0110 210° Southwest 178 205 9,700  Level FlightAware ADS-B
Sat 07:32:49 PM 39.0120 -78.0230 214° Southwest 178 205 9,700  Level FlightAware ADS-B
Sat 07:33:19 PM 38.9900 -78.0400 211° Southwest 178 205 9,700  Level FlightAware ADS-B
Sat 07:33:39 PM 38.9780 -78.0490 210° Southwest 179 206 9,700  Level FlightAware ADS-B
Sat 07:34:04 PM 38.9580 -78.0650 212° Southwest 180 207 9,700  Level FlightAware ADS-B
Sat 07:34:29 PM 38.9400 -78.0790 211° Southwest 180 207 9,700  Level FlightAware ADS-B
Sat 07:34:50 PM 38.9230 -78.0920 211° Southwest 179 206 9,700  Level FlightAware ADS-B
Sat 07:35:11 PM 38.9100 -78.1030 213° Southwest 179 206 9,700  Level FlightAware ADS-B
Sat 07:35:30 PM 38.8960 -78.1140 211° Southwest 179 206 9,700  Level FlightAware ADS-B
Sat 07:35:53 PM 38.8790 -78.1260 209° Southwest 179 206 9,700  Level FlightAware ADS-B
Sat 07:36:14 PM 38.8640 -78.1380 212° Southwest 179 206 9,700  Level FlightAware ADS-B
Sat 07:36:35 PM 38.8500 -78.1490 211° Southwest 179 206 9,700  Level FlightAware ADS-B
Sat 07:37:00 PM 38.8320 -78.1630 211° Southwest 178 205 9,700  Level FlightAware ADS-B
Sat 07:37:22 PM 38.8170 -78.1750 212° Southwest 178 205 9,700  Level FlightAware ADS-B
Sat 07:37:42 PM 38.8020 -78.1870 212° Southwest 178 205 9,700  Level FlightAware ADS-B
Sat 07:38:04 PM 38.7860 -78.1990 210° Southwest 178 205 9,700  Level FlightAware ADS-B
Sat 07:38:28 PM 38.7690 -78.2120 211° Southwest 178 205 9,700  Level FlightAware ADS-B
Sat 07:38:48 PM 38.7560 -78.2230 213° Southwest 179 206 9,700  Level FlightAware ADS-B
Sat 07:39:14 PM 38.7400 -78.2350 210° Southwest 179 206 9,700  Level FlightAware ADS-B
Sat 07:39:36 PM 38.7220 -78.2490 211° Southwest 179 206 9,700  Level FlightAware ADS-B
Sat 07:40:18 PM 38.6960 -78.2690 211° Southwest 179 206 9,700  Level FlightAware ADS-B
Sat 07:40:42 PM 38.6810 -78.2800 210° Southwest 179 206 9,700  Level FlightAware ADS-B
Sat 07:41:06 PM 38.6670 -78.2920 214° Southwest 179 206 9,700  Level FlightAware ADS-B
Sat 07:41:30 PM 38.6520 -78.3030 210° Southwest 179 206 9,700  Level FlightAware ADS-B
Sat 07:41:49 PM 38.6280 -78.3220 212° Southwest 179 206 9,700  Level FlightAware ADS-B
Sat 07:42:12 PM 38.6110 -78.3350 211° Southwest 179 206 9,700  Level FlightAware ADS-B
Sat 07:42:42 PM 38.5900 -78.3510 211° Southwest 179 206 9,700  Level FlightAware ADS-B
Sat 07:43:08 PM 38.5720 -78.3650 211° Southwest 179 206 9,700  Level FlightAware ADS-B
Sat 07:43:30 PM 38.5560 -78.3780 212° Southwest 179 206 9,700  Level FlightAware ADS-B
Sat 07:43:50 PM 38.5420 -78.3880 209° Southwest 181 208 9,700  Level FlightAware ADS-B
Sat 07:44:10 PM 38.5280 -78.3990 212° Southwest 180 207 9,700  Level FlightAware ADS-B
Sat 07:44:30 PM 38.5130 -78.4110 212° Southwest 180 207 9,700  Level FlightAware ADS-B
Sat 07:44:50 PM 38.4990 -78.4220 212° Southwest 181 208 9,700  Level FlightAware ADS-B
Sat 07:45:06 PM 38.4870 -78.4310 210° Southwest 179 206 9,700  Level FlightAware ADS-B
Sat 07:45:26 PM 38.4740 -78.4410 211° Southwest 179 206 9,700  Level FlightAware ADS-B
Sat 07:45:46 PM 38.4590 -78.4530 212° Southwest 180 207 9,700  Level FlightAware ADS-B
Sat 07:46:10 PM 38.4410 -78.4660 209° Southwest 179 206 9,700  Level FlightAware ADS-B
Sat 07:46:30 PM 38.4280 -78.4770 214° Southwest 179 206 9,700  Level FlightAware ADS-B
Sat 07:46:50 PM 38.4140 -78.4880 212° Southwest 179 206 9,700  Level FlightAware ADS-B
Sat 07:47:10 PM 38.3990 -78.4980 208° Southwest 179 206 9,700  Level FlightAware ADS-B
Sat 07:47:40 PM 38.3780 -78.5150 212° Southwest 180 207 9,700  Level FlightAware ADS-B
Sat 07:48:00 PM 38.3630 -78.5260 210° Southwest 181 208 9,700  Level FlightAware ADS-B
Sat 07:48:22 PM 38.3490 -78.5380 214° Southwest 181 208 9,700  Level FlightAware ADS-B
Sat 07:48:44 PM 38.3320 -78.5510 211° Southwest 181 208 9,700  Level FlightAware ADS-B
Sat 07:49:06 PM 38.3160 -78.5630 210° Southwest 181 208 9,700  Level FlightAware ADS-B
Sat 07:49:26 PM 38.3020 -78.5740 212° Southwest 181 208 9,700  Level FlightAware ADS-B
Sat 07:49:51 PM 38.2860 -78.5850 208° Southwest 181 208 9,700  Level FlightAware ADS-B
Sat 07:50:15 PM 38.2720 -78.5970 214° Southwest 181 208 9,700  Level FlightAware ADS-B
Sat 07:50:43 PM 38.2490 -78.6130 209° Southwest 182 209 9,700  Level FlightAware ADS-B
Sat 07:51:07 PM 38.2340 -78.6240 210° Southwest 182 209 9,700  Level FlightAware ADS-B
Sat 07:51:27 PM 38.2140 -78.6400 212° Southwest 182 209 9,700  Level FlightAware ADS-B
Sat 07:52:00 PM 38.1930 -78.6560 211° Southwest 183 211 9,700  Level FlightAware ADS-B
Sat 07:52:19 PM 38.1770 -78.6690 213° Southwest 182 209 9,700  Level FlightAware ADS-B
Sat 07:52:44 PM 38.1610 -78.6810 211° Southwest 182 209 9,700  Level FlightAware ADS-B
Sat 07:53:08 PM 38.1470 -78.6920 212° Southwest 182 209 9,700  Level FlightAware ADS-B
Sat 07:53:32 PM 38.1320 -78.7030 210° Southwest 182 209 9,700  Level FlightAware ADS-B
Sat 07:53:57 PM 38.1170 -78.7150 212° Southwest 182 209 9,700  Level FlightAware ADS-B
Sat 07:54:09 PM 38.1090 -78.7210 211° Southwest 182 209 9,700  Level FlightAware ADS-B
Sat 07:54:55 PM 38.0640 -78.7550 211° Southwest 182 209 9,700  Level FlightAware ADS-B
Sat 07:55:15 PM 38.0490 -78.7670 212° Southwest 182 209 9,700  Level FlightAware ADS-B
Sat 07:55:49 PM 38.0280 -78.7830 211° Southwest 182 209 9,700  Level FlightAware ADS-B
Sat 07:56:13 PM 38.0130 -78.7940 210° Southwest 182 209 9,700  Level FlightAware ADS-B
Sat 07:56:30 PM 37.9950 -78.8070 210° Southwest 182 209 9,700  Level FlightAware ADS-B
Sat 07:57:09 PM 37.9670 -78.8290 212° Southwest 179 206 9,700  Level FlightAware ADS-B
Sat 07:57:35 PM 37.9490 -78.8430 212° Southwest 178 205 9,700  Level FlightAware ADS-B
Sat 07:57:55 PM 37.9340 -78.8530 208° Southwest 178 205 9,700  Level FlightAware ADS-B
Sat 07:58:19 PM 37.9180 -78.8660 213° Southwest 178 205 9,700  Level FlightAware ADS-B
Sat 07:58:39 PM 37.9030 -78.8770 210° Southwest 178 205 9,700  Level FlightAware ADS-B
Sat 07:58:59 PM 37.8900 -78.8870 211° Southwest 178 205 9,700  Level FlightAware ADS-B
Sat 07:59:19 PM 37.8750 -78.8980 210° Southwest 178 205 9,700  Level FlightAware ADS-B
Sat 07:59:45 PM 37.8570 -78.9120 212° Southwest 178 205 9,700  Level FlightAware ADS-B
Sat 08:00:07 PM 37.8410 -78.9250 213° Southwest 178 205 9,700 243 Level FlightAware ADS-B
Sat 08:00:59 PM 37.8133 -78.9486 213° Southwest 188 216 10,000 159 Climbing Washington Center
Sat 08:02:00 PM 37.7708 -78.9808 211° Southwest 188 216 10,000  Level Washington Center
Sat 08:03:00 PM 37.7219 -79.0181 211° Southwest 188 216 10,000  Level Washington Center
Sat 08:04:00 PM 37.6814 -79.0478 210° Southwest 188 216 10,000  Level Washington Center
Sat 08:05:01 PM 37.6386 -79.0797 211° Southwest 188 216 10,000  Level Washington Center
Sat 08:05:59 PM 37.5961 -79.1119 211° Southwest 188 216 10,000  Level Washington Center
Sat 08:07:00 PM 37.5578 -79.1389 209° Southwest 188 216 10,000  Level Washington Center
Sat 08:08:00 PM 37.5086 -79.1733 209° Southwest 188 216 10,000  Level Washington Center
Sat 08:09:01 PM 37.4661 -79.2053 211° Southwest 188 216 10,000  Level Washington Center
Sat 08:10:01 PM 37.4256 -79.2297 206° Southwest 188 216 10,000  Level Washington Center
Sat 08:10:59 PM 37.3808 -79.2589 207° Southwest 188 216 10,000  Level Washington Center
Sat 08:11:59 PM 37.3319 -79.2903 207° Southwest 188 216 10,000  Level Washington Center
Sat 08:13:00 PM 37.2872 -79.3197 208° Southwest 188 216 10,000  Level Washington Center
Sat 08:14:01 PM 37.2425 -79.3486 207° Southwest 188 216 10,000  Level Washington Center
Sat 08:15:01 PM 37.1978 -79.3778 207° Southwest 183 211 10,000  Level Washington Center
Sat 08:15:59 PM 37.1572 -79.4069 210° Southwest 183 211 10,000  Level Washington Center
Sat 08:16:59 PM 37.1169 -79.4311 206° Southwest 183 211 10,000  Level Washington Center
Sat 08:18:00 PM 37.0742 -79.4603 209° Southwest 183 211 10,000  Level Washington Center
Sat 08:19:01 PM 37.0275 -79.4864 204° Southwest 183 211 10,000  Level Washington Center
Sat 08:19:59 PM 36.9847 -79.5156 209° Southwest 183 211 10,000  Level Washington Center
Sat 08:20:59 PM 36.9358 -79.5469 207° Southwest 183 211 10,000  Level Washington Center
Sat 08:22:00 PM 36.8911 -79.5758 207° Southwest 183 211 10,000  Level Washington Center
Sat 08:23:02 PM 36.8483 -79.6019 206° Southwest 183 211 10,000 -90 Level Washington Center
Sat 08:25:00 PM 36.7573 -79.6397 208° Southwest  Level FlightAware Approximate
Sat 08:32:00 PM 36.4579 -79.8366 207° Southwest  Level FlightAware Approximate
Sat 08:33:00 PM 36.4150 -79.8642 207° Southwest  Level FlightAware Approximate
Sat 08:34:00 PM 36.3720 -79.8918 207° Southwest  Level FlightAware Approximate
Sat 08:35:00 PM 36.3290 -79.9193 207° Southwest  Level FlightAware Approximate
Sat 08:36:00 PM 36.2860 -79.9468 207° Southwest  Level FlightAware Approximate
Sat 08:37:00 PM 36.2430 -79.9743 207° Southwest  Level FlightAware Approximate
Sat 08:38:00 PM 36.2000 -80.0017 207° Southwest  Level FlightAware Approximate
Sat 08:39:00 PM 36.1570 -80.0291 207° Southwest  Level FlightAware Approximate
Sat 08:45:13 PM 35.8572 -80.2264 207° Southwest 192 221 7,900  Level Atlanta Center
Sat 08:46:26 PM 35.8000 -80.2622 207° Southwest 192 221 7,100 -672 Descending Atlanta Center
Sat 08:47:27 PM 35.7508 -80.2928 207° Southwest 188 216 6,400 -689 Descending Atlanta Center
Sat 08:48:28 PM 35.7039 -80.3256 210° Southwest 190 219 5,700 -734 Descending Atlanta Center
Sat 08:49:46 PM 35.6467 -80.3689 212° Southwest 194 223 4,700 -756 Descending Atlanta Center
Sat 08:50:35 PM 35.6167 -80.4086 227° Southwest 191 220 4,100 -738 Descending Atlanta Center
Sat 08:51:48 PM 35.5725 -80.4667 227° Southwest 192 221 3,200 -496 Descending Atlanta Center
Sat 08:52:48 PM 35.5361 -80.5144 227° Southwest 186 214 3,000 -104 Descending Atlanta Center
Sat 08:53:43 PM 35.5081 -80.5514 227° Southwest 177 204 3,000 -261 Level Atlanta Center
Sat 08:54:43 PM 35.4739 -80.6011 230° Southwest 175 201 2,500 -545 Descending Atlanta Center
Sat 08:55:44 PM 35.4483 -80.6558 240° Southwest 182 209 1,900 -569 Descending Atlanta Center
Sat 08:56:39 PM 35.4308 -80.6972 243° Southwest 143 165 1,400 -347 Descending Atlanta Center
Sat 08:57:45 PM 35.4103 -80.7083 204° Southwest 111 128 1,200 -182 Descending Atlanta Center

Login

Don't have an account? Register now (free) for customized features, flight alerts, and more!